createdAt,value
2018-09-12T00:01:50.954Z,24.20
2018-09-12T00:04:19.116Z,24.20
2018-09-12T00:06:47.173Z,24.20
2018-09-12T00:09:15.244Z,24.20
2018-09-12T00:11:43.352Z,24.20
2018-09-12T00:14:11.436Z,24.20
2018-09-12T00:16:39.494Z,24.20
2018-09-12T00:19:07.925Z,24.20
2018-09-12T00:21:36.325Z,24.20
2018-09-12T00:24:04.417Z,24.20
2018-09-12T00:26:32.504Z,24.20
2018-09-12T00:29:00.610Z,24.20
2018-09-12T00:31:28.915Z,24.20
2018-09-12T00:33:56.976Z,24.20
2018-09-12T00:36:25.097Z,24.20
2018-09-12T00:38:53.181Z,24.10
2018-09-12T00:41:21.249Z,24.10
2018-09-12T00:43:49.489Z,24.10
2018-09-12T00:46:17.591Z,24.10
2018-09-12T00:48:45.710Z,24.10
2018-09-12T00:51:13.789Z,24.10
2018-09-12T00:53:41.885Z,24.10
2018-09-12T00:56:09.967Z,24.10
2018-09-12T00:58:38.065Z,24.10
2018-09-12T01:01:06.308Z,24.10
2018-09-12T01:03:34.598Z,24.10
2018-09-12T01:06:02.712Z,24.10
2018-09-12T01:08:30.835Z,24.10
2018-09-12T01:10:58.928Z,24.10
2018-09-12T01:13:27.031Z,24.10
2018-09-12T11:09:17.384Z,21.90
2018-09-12T11:11:45.492Z,22.10
2018-09-12T11:14:13.663Z,22.10
2018-09-12T11:16:41.808Z,22.20
2018-09-12T11:19:09.869Z,22.30
2018-09-12T11:21:39.176Z,22.50
2018-09-12T11:24:07.327Z,22.60
2018-09-12T11:26:35.385Z,22.70
2018-09-12T11:29:03.500Z,22.80
2018-09-12T11:31:31.821Z,22.80
2018-09-12T11:33:59.914Z,22.90
2018-09-12T11:36:28.014Z,23.00
2018-09-12T11:38:56.088Z,23.00
2018-09-12T11:41:24.193Z,23.10
2018-09-12T11:43:52.320Z,23.10
2018-09-12T11:46:20.453Z,23.20
2018-09-12T11:48:48.514Z,23.20
2018-09-12T11:51:16.642Z,23.30
2018-09-12T11:53:44.754Z,23.30
2018-09-12T11:56:12.852Z,23.30
2018-09-12T11:58:40.929Z,23.30
2018-09-12T12:01:09.174Z,23.40
2018-09-12T12:03:37.232Z,23.40
2018-09-12T12:06:05.370Z,23.40
2018-09-12T12:08:33.497Z,23.40
2018-09-12T12:11:01.600Z,23.40
2018-09-12T12:13:29.709Z,23.50
2018-09-12T12:15:57.797Z,23.50
2018-09-12T12:18:25.872Z,23.50
2018-09-12T12:20:53.964Z,23.50
2018-09-12T12:23:22.049Z,23.50
2018-09-12T12:25:50.154Z,23.50
2018-09-12T12:28:18.260Z,23.50
2018-09-12T12:30:46.349Z,23.50
2018-09-12T12:33:14.437Z,23.60
2018-09-12T12:35:42.559Z,23.60
2018-09-12T12:38:10.646Z,23.60
2018-09-12T12:40:38.769Z,23.60
2018-09-12T12:43:06.933Z,23.60
2018-09-12T12:45:35.073Z,23.60
2018-09-12T12:48:03.142Z,23.60
2018-09-12T12:50:31.486Z,23.60
2018-09-12T12:52:59.910Z,23.70
2018-09-12T12:55:28.057Z,23.70
2018-09-12T12:57:56.295Z,23.70
2018-09-12T13:00:24.467Z,23.70
2018-09-12T13:02:52.692Z,23.70
2018-09-12T13:05:20.771Z,23.70
2018-09-12T13:07:48.872Z,23.80
2018-09-12T13:10:16.980Z,23.80
2018-09-12T13:12:45.105Z,23.80
2018-09-12T13:15:13.205Z,23.90
2018-09-12T13:17:41.260Z,23.90
2018-09-12T13:20:09.451Z,23.80
2018-09-12T13:22:37.496Z,23.80
2018-09-12T13:25:05.891Z,23.90
2018-09-12T13:27:34.069Z,23.90
2018-09-12T13:30:02.344Z,23.90
2018-09-12T13:32:30.442Z,23.90
2018-09-12T13:34:58.888Z,23.90
2018-09-12T13:37:26.979Z,23.90
2018-09-12T13:39:55.164Z,23.90
2018-09-12T13:42:23.322Z,23.90
2018-09-12T13:44:51.400Z,23.90
2018-09-12T13:47:19.505Z,23.90
2018-09-12T13:49:47.632Z,23.90
2018-09-12T13:52:15.692Z,23.90
2018-09-12T13:54:43.809Z,24.00
2018-09-12T13:57:11.868Z,24.00
2018-09-12T13:59:39.968Z,24.00
2018-09-12T14:02:08.041Z,24.00
2018-09-12T14:04:36.173Z,24.00
2018-09-12T14:07:04.287Z,24.00
2018-09-12T14:09:34.249Z,24.00
2018-09-12T14:12:02.365Z,24.00
2018-09-12T14:14:30.453Z,24.00
2018-09-12T14:16:58.661Z,24.00
2018-09-12T14:19:26.840Z,24.00
2018-09-12T14:21:54.866Z,24.10
2018-09-12T14:24:22.956Z,24.00
2018-09-12T14:26:51.028Z,24.10
2018-09-12T14:29:19.333Z,24.10
2018-09-12T14:31:47.511Z,24.00
2018-09-12T14:34:15.610Z,24.00
2018-09-12T14:36:43.704Z,24.10
2018-09-12T14:39:11.857Z,24.10
2018-09-12T14:41:40.108Z,24.10
2018-09-12T14:44:08.196Z,24.10
2018-09-12T14:46:36.455Z,24.10
2018-09-12T14:49:04.696Z,24.10
2018-09-12T14:51:32.856Z,24.10
2018-09-12T14:54:01.553Z,24.10
2018-09-12T14:56:29.789Z,24.10
2018-09-12T14:58:57.924Z,24.10
2018-09-12T15:01:26.070Z,24.10
2018-09-12T15:03:54.124Z,24.10
2018-09-12T15:06:22.308Z,24.10
2018-09-12T15:08:50.456Z,24.20
2018-09-12T15:11:18.537Z,24.20
2018-09-12T15:13:46.628Z,24.20
2018-09-12T15:16:14.679Z,24.20
2018-09-12T15:18:42.785Z,24.20
2018-09-12T15:21:10.844Z,24.20
2018-09-12T15:23:39.153Z,24.20
2018-09-12T15:26:07.290Z,24.20
2018-09-12T15:28:35.457Z,24.20
2018-09-12T15:31:03.814Z,24.20
2018-09-12T15:33:32.063Z,24.20
2018-09-12T15:36:00.284Z,24.20
2018-09-12T15:38:28.373Z,24.20
2018-09-12T15:40:56.490Z,24.10
2018-09-12T15:43:24.560Z,24.10
2018-09-12T15:45:52.729Z,24.10
2018-09-12T15:48:20.833Z,24.10
2018-09-12T15:50:48.889Z,24.10
2018-09-12T15:53:17.021Z,24.10
2018-09-12T15:55:45.225Z,24.20
2018-09-12T15:58:13.322Z,24.10
2018-09-12T16:00:41.508Z,24.10
2018-09-12T16:03:09.564Z,24.10
2018-09-12T16:05:37.788Z,24.10
2018-09-12T16:08:05.957Z,24.10
2018-09-12T16:10:34.177Z,24.10
2018-09-12T16:13:02.470Z,24.20
2018-09-12T16:15:30.621Z,24.10
2018-09-12T16:17:59.090Z,24.10
2018-09-12T16:20:27.193Z,24.10
2018-09-12T16:22:55.284Z,24.10
2018-09-12T16:25:23.344Z,24.10
2018-09-12T16:27:51.441Z,24.10
2018-09-12T16:30:19.513Z,24.00
2018-09-12T16:32:47.731Z,24.00
2018-09-12T16:35:15.668Z,24.10
2018-09-12T16:37:43.748Z,24.10
2018-09-12T16:40:11.855Z,24.10
2018-09-12T16:42:39.884Z,24.10
2018-09-12T16:45:07.982Z,24.00
2018-09-12T16:47:36.084Z,24.00
2018-09-12T16:50:04.729Z,24.00
2018-09-12T16:52:33.358Z,24.00
2018-09-12T16:55:01.518Z,24.00
2018-09-12T16:57:29.630Z,23.90
2018-09-12T16:59:58.024Z,23.90
2018-09-12T17:02:26.116Z,23.90
2018-09-12T17:04:54.214Z,23.90
2018-09-12T17:07:22.333Z,23.90
2018-09-12T17:09:50.448Z,23.90
2018-09-12T17:12:18.508Z,23.80
2018-09-12T17:14:46.578Z,23.90
2018-09-12T17:17:14.713Z,23.90
2018-09-12T17:19:42.864Z,23.80
2018-09-12T17:22:10.932Z,23.80
2018-09-12T17:24:38.981Z,23.80
2018-09-12T17:27:07.117Z,23.80
2018-09-12T17:29:35.208Z,23.80
2018-09-12T17:32:03.294Z,23.80
2018-09-12T17:34:31.422Z,23.80
2018-09-12T17:36:59.597Z,23.80
2018-09-12T17:39:27.699Z,23.80
2018-09-12T17:41:55.766Z,23.80
2018-09-12T17:44:23.851Z,23.80
2018-09-12T17:46:51.960Z,23.80
2018-09-12T17:49:20.035Z,23.80
2018-09-12T17:51:48.080Z,23.80
2018-09-12T17:54:16.148Z,23.80
2018-09-12T17:56:44.289Z,23.80
2018-09-12T17:59:12.371Z,23.80
2018-09-12T18:01:40.453Z,23.80
2018-09-12T18:04:08.525Z,23.80
2018-09-12T18:06:36.621Z,23.80
2018-09-12T18:09:07.193Z,23.80
2018-09-12T18:11:35.436Z,23.70
2018-09-12T18:14:03.527Z,23.70
2018-09-12T18:16:31.660Z,23.70
2018-09-12T18:18:59.768Z,23.70
2018-09-12T18:21:27.847Z,23.70
2018-09-12T18:23:55.939Z,23.70
2018-09-12T18:26:24.048Z,23.70
2018-09-12T18:28:52.172Z,23.70
2018-09-12T18:31:20.245Z,23.70
2018-09-12T18:33:48.432Z,23.70
2018-09-12T18:36:16.595Z,23.60
2018-09-12T18:38:44.676Z,23.60
2018-09-12T18:41:12.753Z,23.60
2018-09-12T18:43:40.800Z,23.60
2018-09-12T18:46:08.941Z,23.60
2018-09-12T18:48:37.004Z,23.60
2018-09-12T18:51:08.784Z,23.60
2018-09-12T18:53:37.196Z,23.60
2018-09-12T18:56:05.472Z,23.60
2018-09-12T18:58:33.626Z,23.60
2018-09-12T19:01:01.714Z,23.50
2018-09-12T19:03:29.828Z,23.60
2018-09-12T19:05:57.917Z,23.60
2018-09-12T19:08:26.105Z,23.50
2018-09-12T19:10:54.196Z,23.50
2018-09-12T19:13:22.352Z,23.50
2018-09-12T19:15:50.324Z,23.50
2018-09-12T19:18:18.489Z,23.50
2018-09-12T19:20:47.245Z,23.50
2018-09-12T19:23:15.311Z,23.50
2018-09-12T19:25:43.399Z,23.50
2018-09-12T19:28:11.489Z,23.50
2018-09-12T19:30:39.544Z,23.50
2018-09-12T19:33:07.650Z,23.50
2018-09-12T19:35:35.803Z,23.50
2018-09-12T19:38:03.918Z,23.50
2018-09-12T19:40:32.009Z,23.50
2018-09-12T19:43:00.147Z,23.50
2018-09-12T19:45:28.267Z,23.50
2018-09-12T19:47:56.616Z,23.50
2018-09-12T19:50:24.679Z,23.40
2018-09-12T19:52:52.728Z,23.40
2018-09-12T19:55:20.832Z,23.40
2018-09-12T19:57:48.928Z,23.40
2018-09-12T20:00:18.394Z,23.40
2018-09-12T20:02:46.423Z,23.40
2018-09-12T20:05:14.496Z,23.40
2018-09-12T20:07:42.584Z,23.40
2018-09-12T20:10:10.691Z,23.40
2018-09-12T20:12:38.788Z,23.40
2018-09-12T20:15:06.853Z,23.40
2018-09-12T20:17:34.960Z,23.40
2018-09-12T20:20:03.119Z,23.40
2018-09-12T20:22:31.373Z,23.30
2018-09-12T20:24:59.540Z,23.30
2018-09-12T20:27:27.622Z,23.30
2018-09-12T20:29:55.767Z,23.40
2018-09-12T20:32:23.781Z,23.30
2018-09-12T20:34:51.864Z,23.30
2018-09-12T20:37:20.146Z,23.30
2018-09-12T20:39:48.192Z,23.30
2018-09-12T20:42:16.303Z,23.30
2018-09-12T20:44:44.398Z,23.30
2018-09-12T20:47:12.492Z,23.30
2018-09-12T20:49:40.576Z,23.30
2018-09-12T20:52:09.033Z,23.30
2018-09-12T20:54:37.104Z,23.30
2018-09-12T20:57:05.528Z,23.30
2018-09-12T20:59:33.716Z,23.30
2018-09-12T21:02:01.821Z,23.30
2018-09-12T21:04:29.960Z,23.30
2018-09-12T21:06:58.701Z,23.30
2018-09-12T21:09:26.776Z,23.30
2018-09-12T21:11:55.006Z,23.30
2018-09-12T21:14:23.122Z,23.30
2018-09-12T21:16:51.276Z,23.30
2018-09-12T21:19:19.349Z,23.30
2018-09-12T21:21:47.424Z,23.30
2018-09-12T21:24:15.604Z,23.30
2018-09-12T21:26:43.720Z,23.30
2018-09-12T21:29:11.851Z,23.30
2018-09-12T21:31:39.948Z,23.30
2018-09-12T21:34:08.009Z,23.30
2018-09-12T21:36:36.084Z,23.30
2018-09-12T21:39:07.303Z,23.30
2018-09-12T21:41:35.415Z,23.30
2018-09-12T21:44:03.525Z,23.30
2018-09-12T21:46:31.776Z,23.30
2018-09-12T21:48:59.980Z,23.30
2018-09-12T21:51:28.128Z,23.30
2018-09-12T21:53:56.242Z,23.30
2018-09-12T21:56:24.360Z,23.30
2018-09-12T21:58:52.992Z,23.30
2018-09-12T22:01:23.131Z,23.30
2018-09-12T22:03:51.708Z,23.30
2018-09-12T22:06:20.020Z,23.30
2018-09-12T22:08:48.099Z,23.30
2018-09-12T22:11:16.160Z,23.30
2018-09-12T22:13:44.240Z,23.30
2018-09-12T22:16:12.355Z,23.30
2018-09-12T22:18:40.491Z,23.30
2018-09-12T22:21:08.559Z,23.30
2018-09-12T22:23:36.812Z,23.30
2018-09-12T22:26:04.956Z,23.30
2018-09-12T22:28:33.052Z,23.30
2018-09-12T22:31:01.224Z,23.30
2018-09-12T22:33:30.053Z,23.30
2018-09-12T22:35:58.495Z,23.30
2018-09-12T22:38:26.639Z,23.30
2018-09-12T22:40:54.847Z,23.30
2018-09-12T22:43:22.946Z,23.30
2018-09-12T22:45:51.116Z,23.30
2018-09-12T22:48:19.192Z,23.30
2018-09-12T22:50:47.272Z,23.30
2018-09-12T22:53:15.360Z,23.30
2018-09-12T22:55:43.460Z,23.30
2018-09-12T22:58:11.564Z,23.40
2018-09-12T23:00:39.633Z,23.40
2018-09-12T23:03:10.835Z,23.40
2018-09-12T23:05:38.948Z,23.40
2018-09-12T23:08:07.036Z,23.40
2018-09-12T23:10:35.149Z,23.40
2018-09-12T23:13:03.345Z,23.40
2018-09-12T23:15:31.574Z,23.40
2018-09-12T23:17:59.656Z,23.40
2018-09-12T23:20:27.711Z,23.40
2018-09-12T23:22:55.844Z,23.40
2018-09-12T23:25:24.005Z,23.40
2018-09-12T23:27:52.148Z,23.40
2018-09-12T23:30:20.232Z,23.50
2018-09-12T23:32:48.325Z,23.50
2018-09-12T23:35:16.392Z,23.50
2018-09-12T23:37:44.465Z,23.50
2018-09-12T23:40:12.550Z,23.50
2018-09-12T23:42:40.668Z,23.50
2018-09-12T23:45:08.720Z,23.50
2018-09-12T23:47:36.819Z,23.50
2018-09-12T23:50:05.104Z,23.50
2018-09-12T23:52:33.185Z,23.50
2018-09-12T23:55:01.307Z,23.50
2018-09-12T23:57:29.416Z,23.50
2018-09-12T23:59:57.536Z,23.50
